sensor_id;sensor_type;location;lat;lon;timestamp;P1;durP1;ratioP1;P2;durP2;ratioP2
80157;SDS011;74139;59.092;37.932;2023-11-19T00:00:43;31.80;;;28.45;;
80157;SDS011;74139;59.092;37.932;2023-11-19T00:03:09;30.17;;;26.92;;
80157;SDS011;74139;59.092;37.932;2023-11-19T00:05:36;29.83;;;26.67;;
80157;SDS011;74139;59.092;37.932;2023-11-19T00:08:02;30.50;;;27.30;;
80157;SDS011;74139;59.092;37.932;2023-11-19T00:10:28;32.65;;;29.20;;
80157;SDS011;74139;59.092;37.932;2023-11-19T00:12:54;32.38;;;28.95;;
80157;SDS011;74139;59.092;37.932;2023-11-19T00:15:22;32.65;;;29.20;;
80157;SDS011;74139;59.092;37.932;2023-11-19T00:20:18;44.80;;;34.15;;
80157;SDS011;74139;59.092;37.932;2023-11-19T00:22:45;35.97;;;29.98;;
80157;SDS011;74139;59.092;37.932;2023-11-19T00:25:20;28.40;;;25.40;;
80157;SDS011;74139;59.092;37.932;2023-11-19T00:27:47;19.63;;;17.65;;
80157;SDS011;74139;59.092;37.932;2023-11-19T00:30:13;14.93;;;13.52;;
80157;SDS011;74139;59.092;37.932;2023-11-19T00:32:40;11.50;;;10.52;;
80157;SDS011;74139;59.092;37.932;2023-11-19T00:35:06;15.07;;;8.23;;
80157;SDS011;74139;59.092;37.932;2023-11-19T00:37:41;9.70;;;7.20;;
80157;SDS011;74139;59.092;37.932;2023-11-19T00:40:11;10.65;;;5.80;;
80157;SDS011;74139;59.092;37.932;2023-11-19T00:42:37;6.60;;;4.53;;
80157;SDS011;74139;59.092;37.932;2023-11-19T00:45:03;5.90;;;3.17;;
80157;SDS011;74139;59.092;37.932;2023-11-19T00:47:34;4.45;;;2.42;;
80157;SDS011;74139;59.092;37.932;2023-11-19T00:50:01;3.28;;;1.58;;
80157;SDS011;74139;59.092;37.932;2023-11-19T00:52:27;2.58;;;1.25;;
80157;SDS011;74139;59.092;37.932;2023-11-19T00:54:53;3.92;;;1.60;;
80157;SDS011;74139;59.092;37.932;2023-11-19T00:57:19;1.70;;;1.10;;
80157;SDS011;74139;59.092;37.932;2023-11-19T00:59:45;1.30;;;0.93;;
80157;SDS011;74139;59.092;37.932;2023-11-19T01:02:13;1.17;;;0.80;;
80157;SDS011;74139;59.092;37.932;2023-11-19T01:04:39;0.77;;;0.45;;
80157;SDS011;74139;59.092;37.932;2023-11-19T01:07:05;1.10;;;0.52;;
80157;SDS011;74139;59.092;37.932;2023-11-19T01:09:32;1.65;;;1.00;;
80157;SDS011;74139;59.092;37.932;2023-11-19T01:12:00;0.77;;;0.40;;
80157;SDS011;74139;59.092;37.932;2023-11-19T01:14:27;1.45;;;0.70;;
80157;SDS011;74139;59.092;37.932;2023-11-19T01:16:53;1.17;;;0.45;;
80157;SDS011;74139;59.092;37.932;2023-11-19T01:19:22;1.05;;;0.50;;
80157;SDS011;74139;59.092;37.932;2023-11-19T01:21:49;1.13;;;0.57;;
80157;SDS011;74139;59.092;37.932;2023-11-19T01:24:15;0.85;;;0.35;;
80157;SDS011;74139;59.092;37.932;2023-11-19T01:26:41;0.88;;;0.40;;
80157;SDS011;74139;59.092;37.932;2023-11-19T01:29:11;0.40;;;0.30;;
80157;SDS011;74139;59.092;37.932;2023-11-19T01:31:40;0.38;;;0.30;;
80157;SDS011;74139;59.092;37.932;2023-11-19T01:34:06;1.33;;;0.40;;
80157;SDS011;74139;59.092;37.932;2023-11-19T01:36:32;1.13;;;0.40;;
80157;SDS011;74139;59.092;37.932;2023-11-19T01:38:58;0.77;;;0.50;;
80157;SDS011;74139;59.092;37.932;2023-11-19T01:41:24;0.95;;;0.52;;
80157;SDS011;74139;59.092;37.932;2023-11-19T01:43:50;0.63;;;0.30;;
80157;SDS011;74139;59.092;37.932;2023-11-19T01:46:16;1.77;;;0.47;;
80157;SDS011;74139;59.092;37.932;2023-11-19T01:48:44;0.63;;;0.40;;
80157;SDS011;74139;59.092;37.932;2023-11-19T01:51:11;0.50;;;0.40;;
80157;SDS011;74139;59.092;37.932;2023-11-19T01:53:38;0.55;;;0.30;;
80157;SDS011;74139;59.092;37.932;2023-11-19T01:56:05;1.52;;;0.47;;
80157;SDS011;74139;59.092;37.932;2023-11-19T01:58:37;0.52;;;0.30;;
80157;SDS011;74139;59.092;37.932;2023-11-19T02:01:07;1.17;;;0.52;;
80157;SDS011;74139;59.092;37.932;2023-11-19T02:03:34;0.40;;;0.30;;
80157;SDS011;74139;59.092;37.932;2023-11-19T02:06:00;0.20;;;0.20;;
80157;SDS011;74139;59.092;37.932;2023-11-19T02:08:26;0.47;;;0.40;;
80157;SDS011;74139;59.092;37.932;2023-11-19T02:10:52;4.05;;;0.40;;
80157;SDS011;74139;59.092;37.932;2023-11-19T02:13:20;0.80;;;0.30;;
80157;SDS011;74139;59.092;37.932;2023-11-19T02:15:46;0.43;;;0.20;;
80157;SDS011;74139;59.092;37.932;2023-11-19T02:18:19;0.63;;;0.30;;
80157;SDS011;74139;59.092;37.932;2023-11-19T02:23:13;1.95;;;0.28;;
80157;SDS011;74139;59.092;37.932;2023-11-19T02:25:39;0.55;;;0.35;;
80157;SDS011;74139;59.092;37.932;2023-11-19T02:28:06;0.30;;;0.20;;
80157;SDS011;74139;59.092;37.932;2023-11-19T02:32:59;2.15;;;0.38;;
80157;SDS011;74139;59.092;37.932;2023-11-19T02:35:27;0.50;;;0.40;;
80157;SDS011;74139;59.092;37.932;2023-11-19T02:37:56;0.68;;;0.25;;
80157;SDS011;74139;59.092;37.932;2023-11-19T02:40:22;0.30;;;0.10;;
80157;SDS011;74139;59.092;37.932;2023-11-19T02:42:50;0.60;;;0.30;;
80157;SDS011;74139;59.092;37.932;2023-11-19T02:45:16;1.05;;;0.30;;
80157;SDS011;74139;59.092;37.932;2023-11-19T02:47:43;0.55;;;0.30;;
80157;SDS011;74139;59.092;37.932;2023-11-19T02:50:09;0.25;;;0.10;;
80157;SDS011;74139;59.092;37.932;2023-11-19T02:52:43;0.57;;;0.40;;
80157;SDS011;74139;59.092;37.932;2023-11-19T02:55:10;0.40;;;0.30;;
80157;SDS011;74139;59.092;37.932;2023-11-19T02:57:38;0.60;;;0.32;;
80157;SDS011;74139;59.092;37.932;2023-11-19T03:00:20;0.17;;;0.17;;
80157;SDS011;74139;59.092;37.932;2023-11-19T03:02:50;0.35;;;0.25;;
80157;SDS011;74139;59.092;37.932;2023-11-19T03:05:25;0.20;;;0.20;;
80157;SDS011;74139;59.092;37.932;2023-11-19T03:07:51;0.30;;;0.30;;
80157;SDS011;74139;59.092;37.932;2023-11-19T03:10:17;0.80;;;0.38;;
80157;SDS011;74139;59.092;37.932;2023-11-19T03:12:43;0.77;;;0.30;;
80157;SDS011;74139;59.092;37.932;2023-11-19T03:15:09;0.60;;;0.25;;
80157;SDS011;74139;59.092;37.932;2023-11-19T03:17:36;0.30;;;0.25;;
80157;SDS011;74139;59.092;37.932;2023-11-19T03:20:04;0.35;;;0.30;;
80157;SDS011;74139;59.092;37.932;2023-11-19T03:22:32;0.55;;;0.30;;
80157;SDS011;74139;59.092;37.932;2023-11-19T03:24:59;0.73;;;0.28;;
80157;SDS011;74139;59.092;37.932;2023-11-19T03:27:25;0.22;;;0.22;;
80157;SDS011;74139;59.092;37.932;2023-11-19T03:29:51;1.50;;;0.35;;
80157;SDS011;74139;59.092;37.932;2023-11-19T03:32:17;0.20;;;0.20;;
80157;SDS011;74139;59.092;37.932;2023-11-19T03:34:42;0.65;;;0.30;;
80157;SDS011;74139;59.092;37.932;2023-11-19T03:37:08;0.40;;;0.20;;
80157;SDS011;74139;59.092;37.932;2023-11-19T03:39:34;0.30;;;0.30;;
80157;SDS011;74139;59.092;37.932;2023-11-19T03:42:00;0.40;;;0.30;;
80157;SDS011;74139;59.092;37.932;2023-11-19T03:44:26;0.57;;;0.40;;
80157;SDS011;74139;59.092;37.932;2023-11-19T03:46:52;0.40;;;0.20;;
80157;SDS011;74139;59.092;37.932;2023-11-19T03:49:18;0.45;;;0.30;;
80157;SDS011;74139;59.092;37.932;2023-11-19T03:51:44;1.05;;;0.30;;
80157;SDS011;74139;59.092;37.932;2023-11-19T03:54:10;0.77;;;0.40;;
80157;SDS011;74139;59.092;37.932;2023-11-19T03:59:03;0.30;;;0.22;;
80157;SDS011;74139;59.092;37.932;2023-11-19T04:01:28;0.40;;;0.30;;
80157;SDS011;74139;59.092;37.932;2023-11-19T04:03:54;0.35;;;0.20;;
80157;SDS011;74139;59.092;37.932;2023-11-19T04:06:21;0.73;;;0.40;;
80157;SDS011;74139;59.092;37.932;2023-11-19T04:08:47;1.10;;;0.40;;
80157;SDS011;74139;59.092;37.932;2023-11-19T04:11:13;0.40;;;0.30;;
80157;SDS011;74139;59.092;37.932;2023-11-19T04:13:38;1.00;;;0.40;;
80157;SDS011;74139;59.092;37.932;2023-11-19T04:16:04;0.35;;;0.30;;
80157;SDS011;74139;59.092;37.932;2023-11-19T04:18:30;0.30;;;0.20;;
80157;SDS011;74139;59.092;37.932;2023-11-19T04:20:57;0.17;;;0.15;;
80157;SDS011;74139;59.092;37.932;2023-11-19T04:23:23;0.25;;;0.25;;
80157;SDS011;74139;59.092;37.932;2023-11-19T04:25:50;1.65;;;0.50;;
80157;SDS011;74139;59.092;37.932;2023-11-19T04:28:16;1.30;;;0.50;;
80157;SDS011;74139;59.092;37.932;2023-11-19T04:30:41;0.50;;;0.30;;
80157;SDS011;74139;59.092;37.932;2023-11-19T04:33:07;0.75;;;0.50;;
80157;SDS011;74139;59.092;37.932;2023-11-19T04:35:33;0.50;;;0.22;;
80157;SDS011;74139;59.092;37.932;2023-11-19T04:37:59;0.80;;;0.50;;
80157;SDS011;74139;59.092;37.932;2023-11-19T04:40:25;0.40;;;0.30;;
80157;SDS011;74139;59.092;37.932;2023-11-19T04:42:51;1.05;;;0.40;;
80157;SDS011;74139;59.092;37.932;2023-11-19T04:45:17;0.60;;;0.35;;
80157;SDS011;74139;59.092;37.932;2023-11-19T04:47:43;0.57;;;0.40;;
80157;SDS011;74139;59.092;37.932;2023-11-19T04:50:09;0.98;;;0.50;;
80157;SDS011;74139;59.092;37.932;2023-11-19T04:52:38;0.77;;;0.30;;
80157;SDS011;74139;59.092;37.932;2023-11-19T04:55:05;0.70;;;0.30;;
80157;SDS011;74139;59.092;37.932;2023-11-19T04:57:31;2.05;;;0.30;;
80157;SDS011;74139;59.092;37.932;2023-11-19T04:59:58;0.90;;;0.40;;
80157;SDS011;74139;59.092;37.932;2023-11-19T05:02:24;0.52;;;0.32;;
80157;SDS011;74139;59.092;37.932;2023-11-19T05:04:50;1.33;;;0.60;;
80157;SDS011;74139;59.092;37.932;2023-11-19T05:07:16;0.70;;;0.38;;
80157;SDS011;74139;59.092;37.932;2023-11-19T05:09:42;0.68;;;0.32;;
80157;SDS011;74139;59.092;37.932;2023-11-19T05:12:08;0.40;;;0.30;;
80157;SDS011;74139;59.092;37.932;2023-11-19T05:14:37;0.47;;;0.32;;
80157;SDS011;74139;59.092;37.932;2023-11-19T05:17:04;0.82;;;0.60;;
80157;SDS011;74139;59.092;37.932;2023-11-19T05:19:29;0.70;;;0.40;;
80157;SDS011;74139;59.092;37.932;2023-11-19T05:21:55;0.50;;;0.30;;
80157;SDS011;74139;59.092;37.932;2023-11-19T05:24:21;0.50;;;0.30;;
80157;SDS011;74139;59.092;37.932;2023-11-19T05:26:47;0.65;;;0.50;;
80157;SDS011;74139;59.092;37.932;2023-11-19T05:29:13;0.50;;;0.40;;
80157;SDS011;74139;59.092;37.932;2023-11-19T05:31:38;1.20;;;0.50;;
80157;SDS011;74139;59.092;37.932;2023-11-19T05:34:04;0.55;;;0.38;;
80157;SDS011;74139;59.092;37.932;2023-11-19T05:36:30;0.70;;;0.40;;
80157;SDS011;74139;59.092;37.932;2023-11-19T05:38:56;0.75;;;0.47;;
80157;SDS011;74139;59.092;37.932;2023-11-19T05:41:21;0.90;;;0.60;;
80157;SDS011;74139;59.092;37.932;2023-11-19T05:43:47;0.43;;;0.30;;
80157;SDS011;74139;59.092;37.932;2023-11-19T05:46:13;0.88;;;0.60;;
80157;SDS011;74139;59.092;37.932;2023-11-19T05:48:39;0.77;;;0.40;;
80157;SDS011;74139;59.092;37.932;2023-11-19T05:51:05;1.35;;;0.65;;
80157;SDS011;74139;59.092;37.932;2023-11-19T05:53:31;1.23;;;0.65;;
80157;SDS011;74139;59.092;37.932;2023-11-19T05:55:57;1.20;;;0.50;;
80157;SDS011;74139;59.092;37.932;2023-11-19T05:58:23;0.85;;;0.40;;
80157;SDS011;74139;59.092;37.932;2023-11-19T06:00:51;0.55;;;0.45;;
80157;SDS011;74139;59.092;37.932;2023-11-19T06:03:17;1.63;;;0.60;;
80157;SDS011;74139;59.092;37.932;2023-11-19T06:05:44;0.43;;;0.30;;
80157;SDS011;74139;59.092;37.932;2023-11-19T06:08:10;0.65;;;0.45;;
80157;SDS011;74139;59.092;37.932;2023-11-19T06:10:36;0.52;;;0.40;;
80157;SDS011;74139;59.092;37.932;2023-11-19T06:13:01;1.08;;;0.57;;
80157;SDS011;74139;59.092;37.932;2023-11-19T06:15:30;1.35;;;0.55;;
80157;SDS011;74139;59.092;37.932;2023-11-19T06:17:56;0.95;;;0.47;;
80157;SDS011;74139;59.092;37.932;2023-11-19T06:20:25;1.08;;;0.50;;
80157;SDS011;74139;59.092;37.932;2023-11-19T06:22:50;1.55;;;0.57;;
80157;SDS011;74139;59.092;37.932;2023-11-19T06:25:16;1.13;;;0.50;;
80157;SDS011;74139;59.092;37.932;2023-11-19T06:27:44;0.90;;;0.60;;
80157;SDS011;74139;59.092;37.932;2023-11-19T06:30:10;1.23;;;0.60;;
80157;SDS011;74139;59.092;37.932;2023-11-19T06:32:37;1.08;;;0.50;;
80157;SDS011;74139;59.092;37.932;2023-11-19T06:35:03;1.55;;;0.63;;
80157;SDS011;74139;59.092;37.932;2023-11-19T06:37:30;1.05;;;0.55;;
80157;SDS011;74139;59.092;37.932;2023-11-19T06:39:56;1.27;;;0.60;;
80157;SDS011;74139;59.092;37.932;2023-11-19T06:42:21;1.10;;;0.70;;
80157;SDS011;74139;59.092;37.932;2023-11-19T06:44:47;0.95;;;0.68;;
80157;SDS011;74139;59.092;37.932;2023-11-19T06:47:13;1.80;;;0.80;;
80157;SDS011;74139;59.092;37.932;2023-11-19T06:49:39;1.08;;;0.57;;
80157;SDS011;74139;59.092;37.932;2023-11-19T06:52:05;1.88;;;0.73;;
80157;SDS011;74139;59.092;37.932;2023-11-19T06:54:31;1.10;;;0.70;;
80157;SDS011;74139;59.092;37.932;2023-11-19T06:56:56;0.93;;;0.60;;
80157;SDS011;74139;59.092;37.932;2023-11-19T06:59:23;1.70;;;0.73;;
80157;SDS011;74139;59.092;37.932;2023-11-19T07:01:49;1.85;;;0.80;;
80157;SDS011;74139;59.092;37.932;2023-11-19T07:04:14;1.58;;;0.73;;
80157;SDS011;74139;59.092;37.932;2023-11-19T07:06:40;1.98;;;0.85;;
80157;SDS011;74139;59.092;37.932;2023-11-19T07:09:08;1.63;;;0.70;;
80157;SDS011;74139;59.092;37.932;2023-11-19T07:11:35;1.20;;;0.80;;
80157;SDS011;74139;59.092;37.932;2023-11-19T07:14:01;1.90;;;0.88;;
80157;SDS011;74139;59.092;37.932;2023-11-19T07:16:27;1.83;;;0.80;;
80157;SDS011;74139;59.092;37.932;2023-11-19T07:18:53;1.20;;;0.70;;
80157;SDS011;74139;59.092;37.932;2023-11-19T07:21:19;1.33;;;0.50;;
80157;SDS011;74139;59.092;37.932;2023-11-19T07:23:45;1.48;;;0.70;;
80157;SDS011;74139;59.092;37.932;2023-11-19T07:26:12;0.93;;;0.52;;
80157;SDS011;74139;59.092;37.932;2023-11-19T07:28:38;1.08;;;0.52;;
80157;SDS011;74139;59.092;37.932;2023-11-19T07:31:05;1.80;;;0.80;;
80157;SDS011;74139;59.092;37.932;2023-11-19T07:33:33;2.03;;;0.85;;
80157;SDS011;74139;59.092;37.932;2023-11-19T07:35:59;1.50;;;0.80;;
80157;SDS011;74139;59.092;37.932;2023-11-19T07:38:25;1.58;;;0.80;;
80157;SDS011;74139;59.092;37.932;2023-11-19T07:40:50;1.58;;;0.70;;
80157;SDS011;74139;59.092;37.932;2023-11-19T07:43:16;1.50;;;0.70;;
80157;SDS011;74139;59.092;37.932;2023-11-19T07:45:42;1.35;;;0.80;;
80157;SDS011;74139;59.092;37.932;2023-11-19T07:48:10;1.98;;;0.75;;
80157;SDS011;74139;59.092;37.932;2023-11-19T07:50:38;3.15;;;0.90;;
80157;SDS011;74139;59.092;37.932;2023-11-19T07:53:09;1.08;;;0.52;;
80157;SDS011;74139;59.092;37.932;2023-11-19T07:55:34;1.45;;;0.80;;
80157;SDS011;74139;59.092;37.932;2023-11-19T07:58:00;1.17;;;0.60;;
80157;SDS011;74139;59.092;37.932;2023-11-19T08:00:26;1.52;;;0.80;;
80157;SDS011;74139;59.092;37.932;2023-11-19T08:02:52;2.28;;;1.10;;
80157;SDS011;74139;59.092;37.932;2023-11-19T08:05:18;2.35;;;0.93;;
80157;SDS011;74139;59.092;37.932;2023-11-19T08:07:44;0.98;;;0.52;;
80157;SDS011;74139;59.092;37.932;2023-11-19T08:10:10;1.58;;;0.82;;
80157;SDS011;74139;59.092;37.932;2023-11-19T08:12:36;2.47;;;0.82;;
80157;SDS011;74139;59.092;37.932;2023-11-19T08:15:03;1.77;;;0.80;;
80157;SDS011;74139;59.092;37.932;2023-11-19T08:17:30;1.65;;;0.93;;
80157;SDS011;74139;59.092;37.932;2023-11-19T08:19:56;1.48;;;0.77;;
80157;SDS011;74139;59.092;37.932;2023-11-19T08:22:21;2.42;;;1.00;;
80157;SDS011;74139;59.092;37.932;2023-11-19T08:24:48;1.50;;;0.80;;
80157;SDS011;74139;59.092;37.932;2023-11-19T08:27:14;1.00;;;0.70;;
80157;SDS011;74139;59.092;37.932;2023-11-19T08:29:40;2.30;;;1.00;;
80157;SDS011;74139;59.092;37.932;2023-11-19T08:32:05;1.85;;;1.00;;
80157;SDS011;74139;59.092;37.932;2023-11-19T08:34:35;1.30;;;0.80;;
80157;SDS011;74139;59.092;37.932;2023-11-19T08:37:01;1.30;;;0.90;;
80157;SDS011;74139;59.092;37.932;2023-11-19T08:39:27;2.00;;;1.05;;
80157;SDS011;74139;59.092;37.932;2023-11-19T08:41:53;1.30;;;0.65;;
80157;SDS011;74139;59.092;37.932;2023-11-19T08:44:19;1.75;;;1.00;;
80157;SDS011;74139;59.092;37.932;2023-11-19T08:46:51;1.40;;;0.90;;
80157;SDS011;74139;59.092;37.932;2023-11-19T08:49:17;2.75;;;0.95;;
80157;SDS011;74139;59.092;37.932;2023-11-19T08:51:43;1.35;;;0.73;;
80157;SDS011;74139;59.092;37.932;2023-11-19T08:54:10;1.63;;;1.00;;
80157;SDS011;74139;59.092;37.932;2023-11-19T08:56:36;1.55;;;0.88;;
80157;SDS011;74139;59.092;37.932;2023-11-19T08:59:03;1.25;;;0.70;;
80157;SDS011;74139;59.092;37.932;2023-11-19T09:01:30;1.27;;;0.80;;
80157;SDS011;74139;59.092;37.932;2023-11-19T09:03:56;2.15;;;0.93;;
80157;SDS011;74139;59.092;37.932;2023-11-19T09:06:22;1.27;;;0.80;;
80157;SDS011;74139;59.092;37.932;2023-11-19T09:08:47;1.42;;;0.80;;
80157;SDS011;74139;59.092;37.932;2023-11-19T09:11:13;0.90;;;0.55;;
80157;SDS011;74139;59.092;37.932;2023-11-19T09:13:39;1.67;;;0.90;;
80157;SDS011;74139;59.092;37.932;2023-11-19T09:16:05;2.08;;;0.77;;
80157;SDS011;74139;59.092;37.932;2023-11-19T09:18:32;1.13;;;0.73;;
80157;SDS011;74139;59.092;37.932;2023-11-19T09:20:58;1.42;;;0.88;;
80157;SDS011;74139;59.092;37.932;2023-11-19T09:23:24;1.35;;;0.95;;
80157;SDS011;74139;59.092;37.932;2023-11-19T09:25:54;1.42;;;0.90;;
80157;SDS011;74139;59.092;37.932;2023-11-19T09:28:21;1.15;;;0.80;;
80157;SDS011;74139;59.092;37.932;2023-11-19T09:30:47;1.50;;;0.80;;
80157;SDS011;74139;59.092;37.932;2023-11-19T09:33:13;1.60;;;0.85;;
80157;SDS011;74139;59.092;37.932;2023-11-19T09:35:39;2.13;;;0.73;;
80157;SDS011;74139;59.092;37.932;2023-11-19T09:38:05;1.83;;;1.00;;
80157;SDS011;74139;59.092;37.932;2023-11-19T09:40:31;1.75;;;0.90;;
80157;SDS011;74139;59.092;37.932;2023-11-19T09:42:57;1.52;;;0.88;;
80157;SDS011;74139;59.092;37.932;2023-11-19T09:45:23;1.02;;;0.77;;
80157;SDS011;74139;59.092;37.932;2023-11-19T09:47:52;1.13;;;0.80;;
80157;SDS011;74139;59.092;37.932;2023-11-19T09:50:19;1.40;;;1.00;;
80157;SDS011;74139;59.092;37.932;2023-11-19T09:52:46;1.98;;;0.82;;
80157;SDS011;74139;59.092;37.932;2023-11-19T09:57:38;1.92;;;0.75;;
80157;SDS011;74139;59.092;37.932;2023-11-19T10:00:05;1.05;;;0.60;;
80157;SDS011;74139;59.092;37.932;2023-11-19T10:02:31;1.40;;;0.80;;
80157;SDS011;74139;59.092;37.932;2023-11-19T10:04:59;1.35;;;0.70;;
80157;SDS011;74139;59.092;37.932;2023-11-19T10:07:25;2.67;;;0.90;;
80157;SDS011;74139;59.092;37.932;2023-11-19T10:09:51;1.63;;;0.70;;
80157;SDS011;74139;59.092;37.932;2023-11-19T10:12:17;1.15;;;0.80;;
80157;SDS011;74139;59.092;37.932;2023-11-19T10:14:43;1.70;;;0.82;;
80157;SDS011;74139;59.092;37.932;2023-11-19T10:17:09;1.60;;;0.80;;
80157;SDS011;74139;59.092;37.932;2023-11-19T10:19:35;1.50;;;1.10;;
80157;SDS011;74139;59.092;37.932;2023-11-19T10:22:02;1.63;;;0.85;;
80157;SDS011;74139;59.092;37.932;2023-11-19T10:24:33;1.17;;;0.70;;
80157;SDS011;74139;59.092;37.932;2023-11-19T10:27:02;1.52;;;0.80;;
80157;SDS011;74139;59.092;37.932;2023-11-19T10:29:31;1.42;;;0.80;;
80157;SDS011;74139;59.092;37.932;2023-11-19T10:31:57;3.58;;;1.02;;
80157;SDS011;74139;59.092;37.932;2023-11-19T10:34:26;1.15;;;0.70;;
80157;SDS011;74139;59.092;37.932;2023-11-19T10:36:53;2.47;;;0.90;;
80157;SDS011;74139;59.092;37.932;2023-11-19T10:39:19;1.42;;;0.90;;
80157;SDS011;74139;59.092;37.932;2023-11-19T10:41:46;2.50;;;1.05;;
80157;SDS011;74139;59.092;37.932;2023-11-19T10:44:13;2.58;;;0.93;;
80157;SDS011;74139;59.092;37.932;2023-11-19T10:46:56;1.45;;;0.75;;
80157;SDS011;74139;59.092;37.932;2023-11-19T10:49:22;1.90;;;0.90;;
80157;SDS011;74139;59.092;37.932;2023-11-19T10:51:48;1.70;;;0.90;;
80157;SDS011;74139;59.092;37.932;2023-11-19T10:54:15;1.50;;;0.75;;
80157;SDS011;74139;59.092;37.932;2023-11-19T10:56:44;1.92;;;0.98;;
80157;SDS011;74139;59.092;37.932;2023-11-19T10:59:10;1.65;;;0.93;;
80157;SDS011;74139;59.092;37.932;2023-11-19T11:01:43;1.88;;;0.80;;
80157;SDS011;74139;59.092;37.932;2023-11-19T11:06:37;1.48;;;0.77;;
80157;SDS011;74139;59.092;37.932;2023-11-19T11:09:03;1.08;;;0.77;;
80157;SDS011;74139;59.092;37.932;2023-11-19T11:13:55;1.88;;;1.00;;
80157;SDS011;74139;59.092;37.932;2023-11-19T11:16:22;1.70;;;0.90;;
80157;SDS011;74139;59.092;37.932;2023-11-19T11:18:49;3.33;;;1.00;;
80157;SDS011;74139;59.092;37.932;2023-11-19T11:21:17;1.92;;;0.95;;
80157;SDS011;74139;59.092;37.932;2023-11-19T11:34:51;2.10;;;0.90;;
80157;SDS011;74139;59.092;37.932;2023-11-19T11:39:26;2.33;;;0.93;;
80157;SDS011;74139;59.092;37.932;2023-11-19T11:45:01;1.70;;;1.00;;
80157;SDS011;74139;59.092;37.932;2023-11-19T11:47:26;1.52;;;0.98;;
80157;SDS011;74139;59.092;37.932;2023-11-19T11:50:15;2.28;;;1.00;;
80157;SDS011;74139;59.092;37.932;2023-11-19T11:53:16;2.97;;;1.17;;
80157;SDS011;74139;59.092;37.932;2023-11-19T11:55:51;2.13;;;1.10;;
80157;SDS011;74139;59.092;37.932;2023-11-19T11:58:20;2.75;;;1.00;;
80157;SDS011;74139;59.092;37.932;2023-11-19T12:00:47;3.45;;;1.10;;
80157;SDS011;74139;59.092;37.932;2023-11-19T12:03:13;3.13;;;1.00;;
80157;SDS011;74139;59.092;37.932;2023-11-19T12:05:40;1.70;;;1.15;;
80157;SDS011;74139;59.092;37.932;2023-11-19T12:08:07;1.65;;;1.02;;
80157;SDS011;74139;59.092;37.932;2023-11-19T12:13:10;2.30;;;1.13;;
80157;SDS011;74139;59.092;37.932;2023-11-19T12:18:24;2.30;;;0.80;;
80157;SDS011;74139;59.092;37.932;2023-11-19T12:20:51;2.03;;;1.00;;
80157;SDS011;74139;59.092;37.932;2023-11-19T12:23:17;2.20;;;1.05;;
80157;SDS011;74139;59.092;37.932;2023-11-19T12:25:43;2.28;;;0.98;;
80157;SDS011;74139;59.092;37.932;2023-11-19T12:28:14;1.50;;;0.90;;
80157;SDS011;74139;59.092;37.932;2023-11-19T12:30:40;2.45;;;0.82;;
80157;SDS011;74139;59.092;37.932;2023-11-19T12:33:09;1.10;;;0.70;;
80157;SDS011;74139;59.092;37.932;2023-11-19T12:35:39;1.52;;;0.90;;
80157;SDS011;74139;59.092;37.932;2023-11-19T12:38:05;4.32;;;1.10;;
80157;SDS011;74139;59.092;37.932;2023-11-19T12:40:30;1.75;;;0.90;;
80157;SDS011;74139;59.092;37.932;2023-11-19T12:42:57;2.72;;;1.25;;
80157;SDS011;74139;59.092;37.932;2023-11-19T12:45:23;2.17;;;1.05;;
80157;SDS011;74139;59.092;37.932;2023-11-19T12:48:25;1.60;;;0.90;;
80157;SDS011;74139;59.092;37.932;2023-11-19T12:50:50;2.13;;;1.00;;
80157;SDS011;74139;59.092;37.932;2023-11-19T12:53:15;1.90;;;1.08;;
80157;SDS011;74139;59.092;37.932;2023-11-19T12:55:41;1.52;;;0.63;;
80157;SDS011;74139;59.092;37.932;2023-11-19T12:58:07;1.80;;;1.00;;
80157;SDS011;74139;59.092;37.932;2023-11-19T13:00:33;1.63;;;0.85;;
80157;SDS011;74139;59.092;37.932;2023-11-19T13:02:59;1.33;;;0.82;;
80157;SDS011;74139;59.092;37.932;2023-11-19T13:05:29;1.60;;;0.80;;
80157;SDS011;74139;59.092;37.932;2023-11-19T13:08:09;1.65;;;0.90;;
80157;SDS011;74139;59.092;37.932;2023-11-19T13:10:51;1.70;;;1.00;;
80157;SDS011;74139;59.092;37.932;2023-11-19T13:13:17;2.22;;;0.80;;
80157;SDS011;74139;59.092;37.932;2023-11-19T13:15:43;2.33;;;1.00;;
80157;SDS011;74139;59.092;37.932;2023-11-19T13:18:15;2.03;;;1.00;;
80157;SDS011;74139;59.092;37.932;2023-11-19T13:20:42;1.17;;;0.80;;
80157;SDS011;74139;59.092;37.932;2023-11-19T13:23:08;3.13;;;0.80;;
80157;SDS011;74139;59.092;37.932;2023-11-19T13:25:34;1.25;;;0.75;;
80157;SDS011;74139;59.092;37.932;2023-11-19T13:28:00;1.20;;;0.70;;
80157;SDS011;74139;59.092;37.932;2023-11-19T13:30:26;1.60;;;0.73;;
80157;SDS011;74139;59.092;37.932;2023-11-19T13:32:52;1.98;;;0.90;;
80157;SDS011;74139;59.092;37.932;2023-11-19T13:35:20;1.90;;;1.00;;
80157;SDS011;74139;59.092;37.932;2023-11-19T13:37:47;1.15;;;0.60;;
80157;SDS011;74139;59.092;37.932;2023-11-19T13:40:13;1.40;;;0.80;;
80157;SDS011;74139;59.092;37.932;2023-11-19T13:42:43;0.73;;;0.70;;
80157;SDS011;74139;59.092;37.932;2023-11-19T13:45:12;1.38;;;0.70;;
80157;SDS011;74139;59.092;37.932;2023-11-19T13:47:39;1.30;;;0.60;;
80157;SDS011;74139;59.092;37.932;2023-11-19T13:50:08;1.40;;;0.90;;
80157;SDS011;74139;59.092;37.932;2023-11-19T13:52:34;1.02;;;0.70;;
80157;SDS011;74139;59.092;37.932;2023-11-19T13:57:29;0.90;;;0.77;;
80157;SDS011;74139;59.092;37.932;2023-11-19T13:59:55;1.20;;;0.65;;
80157;SDS011;74139;59.092;37.932;2023-11-19T14:02:22;1.95;;;0.90;;
80157;SDS011;74139;59.092;37.932;2023-11-19T14:04:47;1.52;;;0.95;;
80157;SDS011;74139;59.092;37.932;2023-11-19T14:07:13;2.10;;;0.70;;
80157;SDS011;74139;59.092;37.932;2023-11-19T14:09:43;1.75;;;0.80;;
80157;SDS011;74139;59.092;37.932;2023-11-19T14:12:10;1.33;;;0.95;;
80157;SDS011;74139;59.092;37.932;2023-11-19T14:14:38;3.42;;;0.77;;
80157;SDS011;74139;59.092;37.932;2023-11-19T14:19:30;1.65;;;0.55;;
80157;SDS011;74139;59.092;37.932;2023-11-19T14:21:56;2.13;;;0.80;;
80157;SDS011;74139;59.092;37.932;2023-11-19T14:24:23;0.88;;;0.60;;
80157;SDS011;74139;59.092;37.932;2023-11-19T14:29:18;2.83;;;0.60;;
80157;SDS011;74139;59.092;37.932;2023-11-19T14:31:44;1.30;;;0.70;;
80157;SDS011;74139;59.092;37.932;2023-11-19T14:34:09;1.63;;;0.70;;
80157;SDS011;74139;59.092;37.932;2023-11-19T14:36:35;2.22;;;0.70;;
80157;SDS011;74139;59.092;37.932;2023-11-19T14:39:01;1.38;;;0.80;;
80157;SDS011;74139;59.092;37.932;2023-11-19T14:41:27;4.03;;;0.90;;
80157;SDS011;74139;59.092;37.932;2023-11-19T14:43:53;2.40;;;0.75;;
80157;SDS011;74139;59.092;37.932;2023-11-19T14:46:19;1.90;;;0.80;;
80157;SDS011;74139;59.092;37.932;2023-11-19T14:48:45;0.88;;;0.55;;
80157;SDS011;74139;59.092;37.932;2023-11-19T14:51:11;1.20;;;0.75;;
80157;SDS011;74139;59.092;37.932;2023-11-19T14:56:03;1.02;;;0.55;;
80157;SDS011;74139;59.092;37.932;2023-11-19T14:58:30;1.00;;;0.50;;
80157;SDS011;74139;59.092;37.932;2023-11-19T15:00:57;1.27;;;0.50;;
80157;SDS011;74139;59.092;37.932;2023-11-19T15:03:23;1.00;;;0.60;;
80157;SDS011;74139;59.092;37.932;2023-11-19T15:05:49;1.10;;;0.75;;
80157;SDS011;74139;59.092;37.932;2023-11-19T15:08:16;1.85;;;0.68;;
80157;SDS011;74139;59.092;37.932;2023-11-19T15:10:42;1.15;;;0.55;;
80157;SDS011;74139;59.092;37.932;2023-11-19T15:13:10;1.30;;;0.57;;
80157;SDS011;74139;59.092;37.932;2023-11-19T15:15:36;1.13;;;0.60;;
80157;SDS011;74139;59.092;37.932;2023-11-19T15:18:04;1.13;;;0.63;;
80157;SDS011;74139;59.092;37.932;2023-11-19T15:20:30;1.30;;;0.57;;